Time;durP1;ratioP1;P1;durP2;ratioP2;P2;SDS_P1;SDS_P2;PMS_P1;PMS_P2;Temp;Humidity;BMP_temperature;BMP_pressure;BME280_temperature;BME280_humidity;BME280_pressure;Samples;Min_cycle;Max_cycle;Signal;HPM_P1;HPM_P2
2023/11/01 00:00:05;;;;;;;0.25;0.25;;;;;;;7.03;100.00;95484.09;1022754;28;20049;-72
2023/11/01 00:00:36;;;;;;;0.55;0.55;;;;;;;7.08;100.00;95486.00;1023330;28;20038;-73
2023/11/01 00:01:06;;;;;;;0.45;0.30;;;;;;;7.05;100.00;95478.66;1026594;28;20397;-74
2023/11/01 00:01:37;;;;;;;0.10;0.10;;;;;;;6.96;100.00;95475.69;1027307;28;20030;-73
2023/11/01 00:02:07;;;;;;;0.00;0.00;;;;;;;7.01;100.00;95482.78;1022572;29;20619;-72
2023/11/01 00:02:38;;;;;;;0.00;0.00;;;;;;;7.02;100.00;95485.16;1018656;29;20098;-72
2023/11/01 00:03:08;;;;;;;0.00;0.00;;;;;;;7.02;100.00;95482.53;1018473;29;20127;-75
2023/11/01 00:03:39;;;;;;;0.47;0.47;;;;;;;6.96;100.00;95475.69;1018613;29;20039;-72
2023/11/01 00:04:09;;;;;;;0.80;0.55;;;;;;;6.96;100.00;95464.47;1018735;28;20028;-73
2023/11/01 00:04:40;;;;;;;0.20;0.20;;;;;;;7.03;100.00;95485.94;1022644;28;20038;-72
2023/11/01 00:05:10;;;;;;;0.00;0.00;;;;;;;6.94;100.00;95463.91;1026572;28;20169;-72
2023/11/01 00:05:41;;;;;;;0.20;0.20;;;;;;;7.00;100.00;95492.41;1022585;29;20023;-75
2023/11/01 00:06:11;;;;;;;0.10;0.10;;;;;;;7.02;100.00;95492.19;1026530;28;20037;-72
2023/11/01 00:06:42;;;;;;;0.10;0.10;;;;;;;6.96;100.00;95491.34;1026372;28;20022;-72
2023/11/01 00:07:12;;;;;;;0.40;0.10;;;;;;;7.01;100.00;95498.44;1026669;28;20039;-73
2023/11/01 00:07:43;;;;;;;0.00;0.00;;;;;;;7.02;100.00;95498.19;1034590;28;20026;-72
2023/11/01 00:08:14;;;;;;;0.08;0.08;;;;;;;7.04;100.00;95497.94;1026710;28;20066;-73
2023/11/01 00:08:44;;;;;;;0.25;0.25;;;;;;;7.03;100.00;95502.34;1030613;28;20425;-72
2023/11/01 00:09:15;;;;;;;0.03;0.03;;;;;;;6.98;100.00;95496.31;1026322;28;20550;-72
2023/11/01 00:09:45;;;;;;;0.00;0.00;;;;;;;6.96;100.00;95496.56;1022313;29;20031;-73
2023/11/01 00:10:16;;;;;;;0.30;0.30;;;;;;;7.01;100.00;95496.63;1026142;28;20109;-74
2023/11/01 00:10:46;;;;;;;0.00;0.00;;;;;;;7.00;100.00;95502.84;1030516;28;20501;-74
2023/11/01 00:11:17;;;;;;;0.70;0.70;;;;;;;7.02;100.00;95494.78;1022550;28;20039;-71
2023/11/01 00:11:47;;;;;;;0.10;0.10;;;;;;;7.02;100.00;95494.78;1022264;29;20039;-71
2023/11/01 00:12:18;;;;;;;0.00;0.00;;;;;;;7.03;100.00;95498.97;1022640;28;20485;-73
2023/11/01 00:12:48;;;;;;;0.00;0.00;;;;;;;6.98;100.00;95491.09;1022695;28;20061;-74
2023/11/01 00:13:19;;;;;;;0.00;0.00;;;;;;;6.99;100.00;95495.28;1018547;29;20126;-74
2023/11/01 00:13:50;;;;;;;0.20;0.20;;;;;;;7.00;100.00;95497.63;1018576;29;20028;-74
2023/11/01 00:14:20;;;;;;;0.10;0.10;;;;;;;6.97;100.00;95497.34;1014762;29;20563;-73
2023/11/01 00:14:51;;;;;;;0.95;0.93;;;;;;;7.02;100.00;95505.22;1026187;28;20117;-71
2023/11/01 00:15:21;;;;;;;0.00;0.00;;;;;;;6.97;100.00;95505.16;1026700;28;20113;-72
2023/11/01 00:15:52;;;;;;;0.00;0.00;;;;;;;7.00;100.00;95502.84;1030651;28;20093;-72
2023/11/01 00:16:22;;;;;;;0.00;0.00;;;;;;;6.96;100.00;95501.78;1026476;28;20043;-72
2023/11/01 00:16:53;;;;;;;0.10;0.10;;;;;;;6.97;100.00;95503.34;1022439;29;20031;-72
2023/11/01 00:17:23;;;;;;;0.32;0.25;;;;;;;6.88;100.00;95485.78;1022678;28;20031;-74
2023/11/01 00:17:54;;;;;;;0.00;0.00;;;;;;;6.93;100.00;95497.03;1022629;28;20027;-72
2023/11/01 00:18:24;;;;;;;0.30;0.30;;;;;;;6.98;100.00;95502.31;1018510;29;20043;-71
2023/11/01 00:18:55;;;;;;;0.00;0.00;;;;;;;6.96;100.00;95503.59;1022717;29;20030;-72
2023/11/01 00:19:25;;;;;;;0.00;0.00;;;;;;;6.89;100.00;95495.19;1022609;28;20035;-73
2023/11/01 00:19:56;;;;;;;0.03;0.03;;;;;;;6.93;100.00;95506.69;1022531;28;20487;-73
2023/11/01 00:20:26;;;;;;;0.00;0.00;;;;;;;6.90;100.00;95502.75;1025950;28;20034;-73
2023/11/01 00:20:56;;;;;;;0.00;0.00;;;;;;;6.91;100.00;95503.53;1026545;28;20518;-72
2023/11/01 00:21:27;;;;;;;0.22;0.22;;;;;;;6.88;100.00;95499.59;1022702;28;20039;-73
2023/11/01 00:21:57;;;;;;;0.10;0.10;;;;;;;6.91;100.00;95508.75;1026237;28;20030;-73
2023/11/01 00:22:28;;;;;;;0.00;0.00;;;;;;;6.82;100.00;95496.16;1022602;29;20027;-72
2023/11/01 00:22:58;;;;;;;0.30;0.30;;;;;;;6.89;100.00;95511.59;1022634;29;20031;-74
2023/11/01 00:23:29;;;;;;;0.05;0.05;;;;;;;6.82;100.00;95490.94;1022413;29;20694;-73
2023/11/01 00:23:59;;;;;;;0.70;0.38;;;;;;;6.87;100.00;95503.22;1026481;28;20046;-73
2023/11/01 00:24:30;;;;;;;0.08;0.08;;;;;;;6.92;100.00;95503.28;1022511;29;20042;-72
2023/11/01 00:25:00;;;;;;;0.00;0.00;;;;;;;6.91;100.00;95503.53;1022618;29;20523;-72
2023/11/01 00:25:31;;;;;;;7.38;0.35;;;;;;;6.92;100.00;95505.91;1018612;28;20038;-73
2023/11/01 00:26:01;;;;;;;0.00;0.00;;;;;;;6.90;100.00;95502.75;1026555;28;20026;-74
2023/11/01 00:26:32;;;;;;;0.10;0.10;;;;;;;6.90;100.00;95504.56;1026611;28;20022;-73
2023/11/01 00:27:03;;;;;;;0.00;0.00;;;;;;;6.76;100.00;95478.88;1022440;28;20039;-73
2023/11/01 00:27:34;;;;;;;0.20;0.20;;;;;;;6.89;100.00;95505.59;1014796;29;20032;-74
2023/11/01 00:28:04;;;;;;;0.30;0.22;;;;;;;6.81;100.00;95491.19;1014832;29;20272;-72
2023/11/01 00:28:35;;;;;;;0.00;0.00;;;;;;;6.87;100.00;95498.00;1018645;29;20043;-73
2023/11/01 00:29:05;;;;;;;0.00;0.00;;;;;;;6.87;100.00;95505.84;1026758;28;20038;-74
2023/11/01 00:29:36;;;;;;;0.00;0.00;;;;;;;6.89;100.00;95505.59;1022511;28;20505;-72
2023/11/01 00:30:07;;;;;;;0.00;0.00;;;;;;;6.82;100.00;95490.16;1025827;28;20041;-73
2023/11/01 00:30:37;;;;;;;0.00;0.00;;;;;;;6.87;100.00;95502.44;1018410;29;20118;-72
2023/11/01 00:31:08;;;;;;;0.10;0.10;;;;;;;6.85;100.00;95502.72;1018759;29;20358;-73
2023/11/01 00:31:39;;;;;;;0.10;0.10;;;;;;;6.88;100.00;95498.81;1022740;28;20101;-74
2023/11/01 00:32:10;;;;;;;0.00;0.00;;;;;;;6.85;100.00;95497.50;1022806;28;20046;-72
2023/11/01 00:32:40;;;;;;;0.30;0.30;;;;;;;6.88;100.00;95507.44;1030567;28;20320;-74
2023/11/01 00:33:11;;;;;;;0.28;0.22;;;;;;;6.88;100.00;95491.00;1030534;28;20034;-71
2023/11/01 00:33:42;;;;;;;0.10;0.10;;;;;;;6.89;100.00;95495.19;1030515;28;20421;-72
2023/11/01 00:34:12;;;;;;;0.00;0.00;;;;;;;6.93;100.00;95493.66;1030586;28;20034;-74
2023/11/01 00:34:43;;;;;;;0.00;0.00;;;;;;;6.95;100.00;95491.59;1030441;28;20272;-74
2023/11/01 00:35:13;;;;;;;0.00;0.00;;;;;;;6.97;100.00;95492.13;1018911;29;20665;-72
2023/11/01 00:35:44;;;;;;;0.20;0.20;;;;;;;6.96;100.00;95483.50;1022533;28;20078;-72
2023/11/01 00:36:14;;;;;;;0.10;0.10;;;;;;;7.05;100.00;95489.88;1018408;29;20058;-72
2023/11/01 00:36:45;;;;;;;0.00;0.00;;;;;;;7.09;100.00;95485.72;1018681;28;20035;-72
2023/11/01 00:37:16;;;;;;;0.50;0.50;;;;;;;7.09;100.00;95485.72;1026435;28;20039;-73
2023/11/01 00:37:46;;;;;;;0.20;0.20;;;;;;;7.10;100.00;95491.72;1022715;28;20267;-73
2023/11/01 00:38:23;;;;;;;0.00;0.00;;;;;;;7.17;100.00;95492.31;1026497;28;20035;-72
2023/11/01 00:38:54;;;;;;;0.00;0.00;;;;;;;7.18;100.00;95487.91;1026460;28;20058;-73
2023/11/01 00:39:24;;;;;;;0.00;0.00;;;;;;;7.20;100.00;95491.81;1026468;28;20286;-73
2023/11/01 00:39:55;;;;;;;0.00;0.00;;;;;;;7.18;100.00;95485.31;1027212;28;20026;-73
2023/11/01 00:40:25;;;;;;;0.00;0.00;;;;;;;7.25;100.00;95485.88;1025620;28;20073;-73
2023/11/01 00:40:55;;;;;;;0.22;0.22;;;;;;;7.27;100.00;95481.97;1030533;28;20046;-74
2023/11/01 00:41:26;;;;;;;0.40;0.40;;;;;;;7.28;100.00;95488.78;1034617;28;20076;-72
2023/11/01 00:41:56;;;;;;;0.00;0.00;;;;;;;7.30;100.00;95483.31;1030601;28;20560;-72
2023/11/01 00:42:27;;;;;;;0.00;0.00;;;;;;;7.32;100.00;95489.84;1031345;28;20121;-71
2023/11/01 00:42:57;;;;;;;0.10;0.10;;;;;;;7.33;100.00;95488.03;1027237;28;20483;-74
2023/11/01 00:43:29;;;;;;;0.00;0.00;;;;;;;7.30;100.00;95486.69;1027547;28;20058;-74
2023/11/01 00:43:59;;;;;;;0.00;0.00;;;;;;;7.33;100.00;95488.03;1029018;28;20041;-74
2023/11/01 00:44:30;;;;;;;0.40;0.40;;;;;;;7.37;100.00;95491.72;1025689;28;20262;-70
2023/11/01 00:45:00;;;;;;;0.00;0.00;;;;;;;7.38;100.00;95492.50;1027186;28;20282;-73
2023/11/01 00:45:31;;;;;;;0.65;0.20;;;;;;;7.40;100.00;95495.66;1019149;29;20035;-71
2023/11/01 00:46:01;;;;;;;0.80;0.75;;;;;;;7.40;100.00;95490.44;1019449;29;20040;-73
2023/11/01 00:46:32;;;;;;;0.00;0.00;;;;;;;7.42;100.00;95494.38;1019301;29;20677;-74
2023/11/01 00:47:02;;;;;;;0.10;0.10;;;;;;;7.43;100.00;95489.94;1019316;29;20035;-72
2023/11/01 00:47:33;;;;;;;0.22;0.22;;;;;;;7.46;100.00;95486.84;1019299;29;20087;-73
2023/11/01 00:48:03;;;;;;;0.00;0.00;;;;;;;7.42;100.00;95477.94;1023360;29;20035;-73
2023/11/01 00:48:34;;;;;;;0.00;0.00;;;;;;;7.48;100.00;95487.41;1019615;28;20035;-73
2023/11/01 00:49:05;;;;;;;0.00;0.00;;;;;;;7.49;100.00;95489.75;1027044;28;20090;-72
2023/11/01 00:49:35;;;;;;;0.22;0.22;;;;;;;7.49;100.00;95486.34;1024202;28;20027;-72
2023/11/01 00:50:06;;;;;;;0.00;0.00;;;;;;;7.52;100.00;95488.47;1019885;29;20039;-71
2023/11/01 00:50:36;;;;;;;0.10;0.10;;;;;;;7.53;100.00;95482.19;1019621;29;20036;-72
2023/11/01 00:51:07;;;;;;;0.93;0.68;;;;;;;7.51;100.00;95482.47;1023270;28;20120;-71
2023/11/01 00:51:38;;;;;;;0.13;0.13;;;;;;;7.54;100.00;95486.38;1030362;28;20030;-72
2023/11/01 00:52:08;;;;;;;0.00;0.00;;;;;;;7.55;100.00;95480.13;1031269;28;20030;-73
2023/11/01 00:52:39;;;;;;;0.30;0.30;;;;;;;7.55;100.00;95486.13;1031036;28;20069;-72
2023/11/01 00:53:09;;;;;;;0.30;0.20;;;;;;;7.53;100.00;95475.16;1027470;28;20030;-73
2023/11/01 00:53:40;;;;;;;0.00;0.00;;;;;;;7.43;100.00;95456.78;1035261;28;20044;-72
2023/11/01 00:54:10;;;;;;;0.00;0.00;;;;;;;7.52;100.00;95478.81;1030726;28;20442;-71
2023/11/01 00:54:41;;;;;;;0.00;0.00;;;;;;;7.56;100.00;95481.69;1027345;28;20110;-72
2023/11/01 00:55:11;;;;;;;0.10;0.10;;;;;;;7.56;100.00;95479.09;1023268;29;20035;-73
2023/11/01 00:55:42;;;;;;;0.00;0.00;;;;;;;7.64;100.00;95490.91;1019398;29;20111;-73
2023/11/01 00:56:12;;;;;;;0.10;0.10;;;;;;;7.60;100.00;95485.38;1023410;28;20035;-73
2023/11/01 00:56:43;;;;;;;0.10;0.10;;;;;;;7.69;100.00;95475.28;1027301;28;20026;-74
2023/11/01 00:57:13;;;;;;;0.08;0.08;;;;;;;7.66;100.00;95467.94;1027259;28;20671;-74
2023/11/01 00:57:46;;;;;;;0.05;0.05;;;;;;;7.71;100.00;95479.22;1031094;28;20145;-73
2023/11/01 00:58:16;;;;;;;0.00;0.00;;;;;;;7.71;100.00;95481.81;1027696;28;20182;-74
2023/11/01 00:58:47;;;;;;;0.00;0.00;;;;;;;7.66;100.00;95468.72;1023098;29;20354;-72
2023/11/01 00:59:17;;;;;;;0.00;0.00;;;;;;;7.73;100.00;95473.72;1015285;29;20092;-72
2023/11/01 00:59:48;;;;;;;0.00;0.00;;;;;;;7.74;100.00;95476.09;1014930;29;20051;-72
2023/11/01 01:00:18;;;;;;;4.97;0.73;;;;;;;7.73;100.00;95468.50;1014832;29;20537;-74
2023/11/01 01:00:49;;;;;;;1.33;1.25;;;;;;;7.72;100.00;95469.56;1020639;29;20035;-72
2023/11/01 01:01:19;;;;;;;0.17;0.17;;;;;;;7.75;100.00;95472.44;1019006;29;20040;-72
2023/11/01 01:01:50;;;;;;;0.00;0.00;;;;;;;7.80;100.00;95474.28;1019227;29;20031;-72
2023/11/01 01:02:20;;;;;;;0.00;0.00;;;;;;;7.80;100.00;95469.06;1019400;29;20035;-72
2023/11/01 01:02:51;;;;;;;0.20;0.10;;;;;;;7.75;100.00;95461.22;1026220;28;20486;-71
2023/11/01 01:03:21;;;;;;;0.00;0.00;;;;;;;7.81;100.00;95470.63;1027918;28;20518;-72
2023/11/01 01:03:52;;;;;;;0.00;0.00;;;;;;;7.75;100.00;95461.22;1020020;29;20067;-72
2023/11/01 01:04:22;;;;;;;1.88;0.35;;;;;;;7.81;100.00;95465.41;1019337;29;20318;-73
2023/11/01 01:04:53;;;;;;;0.10;0.10;;;;;;;7.85;100.00;95473.56;1019669;29;20541;-72
2023/11/01 01:05:23;;;;;;;0.20;0.20;;;;;;;7.85;100.00;95470.94;1023271;28;20039;-73
2023/11/01 01:05:54;;;;;;;0.00;0.00;;;;;;;7.85;100.00;95470.94;1026669;28;20023;-73
2023/11/01 01:06:24;;;;;;;0.00;0.00;;;;;;;7.85;100.00;95460.50;1026588;28;20041;-72
2023/11/01 01:06:56;;;;;;;0.00;0.00;;;;;;;7.84;100.00;95469.34;1027249;28;20522;-73
2023/11/01 01:07:26;;;;;;;0.10;0.10;;;;;;;7.86;100.00;95467.28;1023116;29;20066;-72
2023/11/01 01:07:57;;;;;;;0.00;0.00;;;;;;;7.85;100.00;95460.50;1023346;28;20357;-74
2023/11/01 01:08:27;;;;;;;0.00;0.00;;;;;;;7.89;100.00;95469.41;1019163;29;20019;-74
2023/11/01 01:08:58;;;;;;;0.00;0.00;;;;;;;7.93;100.00;95473.09;1019386;29;20032;-73
2023/11/01 01:09:28;;;;;;;0.17;0.17;;;;;;;7.88;100.00;95457.38;1023232;28;20636;-73
2023/11/01 01:09:59;;;;;;;0.00;0.00;;;;;;;7.94;100.00;95466.81;1026867;28;20038;-72
2023/11/01 01:10:29;;;;;;;0.00;0.00;;;;;;;7.90;100.00;95452.69;1022813;28;20023;-72
2023/11/01 01:11:00;;;;;;;0.00;0.00;;;;;;;7.97;100.00;95459.25;1019226;29;20039;-72
2023/11/01 01:11:30;;;;;;;0.55;0.55;;;;;;;7.98;100.00;95460.84;1019323;29;20031;-73
2023/11/01 01:12:00;;;;;;;0.05;0.05;;;;;;;7.98;100.00;95460.84;1015380;29;20095;-72
2023/11/01 01:12:31;;;;;;;0.40;0.40;;;;;;;7.99;100.00;95459.00;1019399;29;20024;-73
2023/11/01 01:13:01;;;;;;;0.00;0.00;;;;;;;7.97;100.00;95458.47;1027286;28;20027;-72
2023/11/01 01:13:32;;;;;;;0.00;0.00;;;;;;;7.97;100.00;95458.47;1026909;28;20027;-73
2023/11/01 01:14:02;;;;;;;0.00;0.00;;;;;;;7.99;100.00;95462.41;1023257;29;20059;-74
2023/11/01 01:14:33;;;;;;;0.00;0.00;;;;;;;7.97;100.00;95461.09;1019305;29;20518;-72
2023/11/01 01:15:03;;;;;;;0.00;0.00;;;;;;;7.96;100.00;95456.91;1019219;29;20074;-73
2023/11/01 01:15:34;;;;;;;0.00;0.00;;;;;;;7.96;100.00;95446.47;1019304;29;20035;-73
2023/11/01 01:16:05;;;;;;;0.00;0.00;;;;;;;8.02;100.00;95461.13;1019400;28;20035;-72
2023/11/01 01:16:36;;;;;;;0.00;0.00;;;;;;;7.99;100.00;95457.19;1027236;28;20138;-73
2023/11/01 01:17:07;;;;;;;0.20;0.20;;;;;;;8.00;100.00;95452.75;1027659;28;20070;-72
2023/11/01 01:17:37;;;;;;;0.00;0.00;;;;;;;8.04;100.00;95459.03;1027243;28;20324;-72
2023/11/01 01:18:08;;;;;;;0.13;0.10;;;;;;;8.04;100.00;95454.59;1023080;29;20511;-73
2023/11/01 01:18:39;;;;;;;0.00;0.00;;;;;;;8.06;100.00;95453.56;1027386;28;20078;-72
2023/11/01 01:19:09;;;;;;;0.00;0.00;;;;;;;8.03;100.00;95452.25;1031221;28;20101;-72
2023/11/01 01:19:40;;;;;;;0.17;0.17;;;;;;;7.98;100.00;95439.13;1030983;28;20257;-71
2023/11/01 01:20:11;;;;;;;0.00;0.00;;;;;;;8.05;100.00;95452.78;1026493;28;20097;-72
2023/11/01 01:20:41;;;;;;;0.95;0.45;;;;;;;8.04;100.00;95449.34;1027255;28;20098;-75
2023/11/01 01:21:12;;;;;;;0.77;0.73;;;;;;;8.04;100.00;95453.81;1019510;28;20504;-72
2023/11/01 01:21:43;;;;;;;0.00;0.00;;;;;;;8.01;100.00;95449.09;1027046;28;20026;-73
2023/11/01 01:22:13;;;;;;;0.10;0.10;;;;;;;7.95;100.00;95440.44;1023145;29;20023;-72
2023/11/01 01:22:44;;;;;;;0.10;0.10;;;;;;;7.95;100.00;95444.88;1023307;28;20326;-71
2023/11/01 01:23:14;;;;;;;0.20;0.20;;;;;;;7.84;100.00;95427.56;1027221;28;20022;-74
2023/11/01 01:23:45;;;;;;;0.10;0.10;;;;;;;7.96;100.00;95439.41;1023031;29;20059;-72
2023/11/01 01:24:15;;;;;;;0.20;0.20;;;;;;;7.97;100.00;95440.19;1027223;28;20027;-71
2023/11/01 01:24:46;;;;;;;0.00;0.00;;;;;;;7.96;100.00;95446.47;1027218;28;20260;-73
2023/11/01 01:25:16;;;;;;;0.00;0.00;;;;;;;7.94;100.00;95438.06;1023061;28;20031;-73
2023/11/01 01:25:47;;;;;;;0.00;0.00;;;;;;;7.95;100.00;95439.66;1027270;28;20023;-71
2023/11/01 01:26:17;;;;;;;0.00;0.00;;;;;;;7.94;100.00;95440.69;1027038;28;20074;-71
2023/11/01 01:26:48;;;;;;;0.03;0.03;;;;;;;7.95;100.00;95434.44;1019124;29;20028;-74
2023/11/01 01:27:18;;;;;;;0.05;0.05;;;;;;;7.90;100.00;95427.34;1019224;29;20530;-72
2023/11/01 01:27:49;;;;;;;0.30;0.30;;;;;;;7.93;100.00;95432.06;1023226;29;20019;-75
2023/11/01 01:28:19;;;;;;;0.15;0.15;;;;;;;7.92;100.00;95430.50;1022955;29;20034;-72
2023/11/01 01:28:49;;;;;;;0.00;0.00;;;;;;;7.90;100.00;95429.19;1023157;28;20031;-68
2023/11/01 01:29:20;;;;;;;0.20;0.20;;;;;;;7.89;100.00;95425.78;1018496;29;20027;-74
2023/11/01 01:29:50;;;;;;;0.00;0.00;;;;;;;7.95;100.00;95434.44;1022964;28;20023;-71
2023/11/01 01:30:21;;;;;;;0.00;0.00;;;;;;;7.96;100.00;95430.78;1026529;28;20026;-72
2023/11/01 01:30:51;;;;;;;0.00;0.00;;;;;;;7.89;100.00;95417.16;1027101;28;20052;-71
2023/11/01 01:31:22;;;;;;;0.00;0.00;;;;;;;7.94;100.00;95422.41;1027315;28;20030;-71
2023/11/01 01:31:52;;;;;;;0.00;0.00;;;;;;;7.86;100.00;95421.06;1022783;29;20022;-72
2023/11/01 01:32:23;;;;;;;0.00;0.00;;;;;;;7.93;100.00;95431.28;1023255;29;20023;-74
2023/11/01 01:32:53;;;;;;;0.00;0.00;;;;;;;7.92;100.00;95437.56;1025427;28;20027;-71
2023/11/01 01:33:23;;;;;;;0.00;0.00;;;;;;;7.90;100.00;95431.78;1023158;28;20023;-71
2023/11/01 01:33:54;;;;;;;4.80;0.20;;;;;;;7.89;100.00;95438.06;1024102;28;20027;-71
2023/11/01 01:34:24;;;;;;;0.10;0.10;;;;;;;7.91;100.00;95435.97;1023051;29;20028;-71
2023/11/01 01:34:55;;;;;;;0.20;0.20;;;;;;;7.84;100.00;95427.56;1023241;28;20023;-75
2023/11/01 01:35:25;;;;;;;0.00;0.00;;;;;;;7.88;100.00;95429.44;1028320;28;20034;-71
2023/11/01 01:35:57;;;;;;;0.00;0.00;;;;;;;7.90;100.00;95439.63;1027058;28;20034;-72
2023/11/01 01:36:27;;;;;;;0.30;0.30;;;;;;;7.88;100.00;95429.44;1027065;28;20018;-73
2023/11/01 01:36:58;;;;;;;0.00;0.00;;;;;;;7.89;100.00;95436.22;1022806;28;20845;-73
2023/11/01 01:37:29;;;;;;;0.05;0.05;;;;;;;7.85;100.00;95423.94;1027290;28;20038;-71
2023/11/01 01:37:59;;;;;;;0.15;0.15;;;;;;;7.87;100.00;95432.28;1023040;29;20355;-72
2023/11/01 01:38:30;;;;;;;1.52;0.85;;;;;;;7.89;100.00;95435.44;1019878;28;20027;-71
2023/11/01 01:39:00;;;;;;;0.38;0.38;;;;;;;7.90;100.00;95437.78;1020054;28;20016;-74
2023/11/01 01:39:31;;;;;;;0.00;0.00;;;;;;;7.87;100.00;95425.22;1018992;29;20431;-71
2023/11/01 01:40:02;;;;;;;0.08;0.08;;;;;;;7.84;100.00;95419.72;1015233;29;20036;-72
2023/11/01 01:40:34;;;;;;;0.00;0.00;;;;;;;7.88;100.00;95421.59;1018475;29;20032;-73
2023/11/01 01:41:04;;;;;;;0.10;0.10;;;;;;;7.87;100.00;95422.63;1019003;29;20131;-73
2023/11/01 01:41:35;;;;;;;0.00;0.00;;;;;;;7.90;100.00;95423.94;1019905;29;20283;-74
2023/11/01 01:42:05;;;;;;;0.00;0.00;;;;;;;7.84;100.00;95417.13;1019003;29;20555;-72
2023/11/01 01:42:36;;;;;;;0.00;0.00;;;;;;;7.91;100.00;95423.69;1019074;29;20034;-72
2023/11/01 01:43:19;;;;;;;0.05;0.05;;;;;;;7.93;100.00;95424.22;1026967;28;20609;-73
2023/11/01 01:43:49;;;;;;;0.00;0.00;;;;;;;7.95;100.00;95426.59;1023070;29;20093;-72
2023/11/01 01:44:20;;;;;;;0.00;0.00;;;;;;;7.96;100.00;95431.56;1023363;28;20314;-73
2023/11/01 01:44:50;;;;;;;0.10;0.10;;;;;;;7.96;100.00;95425.56;1026873;28;20035;-72
2023/11/01 01:45:21;;;;;;;0.10;0.10;;;;;;;7.96;100.00;95425.56;1019709;29;20043;-72
2023/11/01 01:45:58;;;;;;;0.00;0.00;;;;;;;7.91;100.00;95420.28;1019169;29;20055;-73
2023/11/01 01:46:29;;;;;;;0.10;0.10;;;;;;;7.97;100.00;95427.13;1015224;29;20043;-72
2023/11/01 01:47:00;;;;;;;0.00;0.00;;;;;;;7.96;100.00;95426.34;1016320;29;20283;-73
2023/11/01 01:47:33;;;;;;;0.00;0.00;;;;;;;7.95;100.00;95418.75;1029783;28;20032;-73
2023/11/01 01:48:04;;;;;;;0.00;0.00;;;;;;;7.95;100.00;95418.75;1031738;28;20352;-73
2023/11/01 01:48:35;;;;;;;0.20;0.20;;;;;;;7.87;100.00;95411.38;1031168;28;20258;-74
2023/11/01 01:49:05;;;;;;;1.05;0.35;;;;;;;7.94;100.00;95412.72;1026931;28;20038;-75
2023/11/01 01:49:36;;;;;;;0.00;0.00;;;;;;;7.96;100.00;95421.13;1023079;29;20283;-74
2023/11/01 01:50:07;;;;;;;0.00;0.00;;;;;;;7.89;100.00;95404.88;1018700;29;20100;-74
2023/11/01 01:50:38;;;;;;;0.00;0.00;;;;;;;7.91;100.00;95407.22;1026746;28;20494;-74
2023/11/01 01:51:08;;;;;;;0.00;0.00;;;;;;;7.98;100.00;95416.44;1018755;29;20275;-73
2023/11/01 01:51:39;;;;;;;0.00;0.00;;;;;;;7.95;100.00;95419.53;1014417;29;20063;-73
2023/11/01 01:52:09;;;;;;;0.17;0.17;;;;;;;7.90;100.00;95403.06;1019249;29;20036;-73
2023/11/01 01:52:40;;;;;;;0.00;0.00;;;;;;;7.94;100.00;95404.09;1018223;29;20044;-72
2023/11/01 01:53:11;;;;;;;0.00;0.00;;;;;;;7.93;100.00;95400.72;1018776;29;20038;-72
2023/11/01 01:53:44;;;;;;;0.00;0.00;;;;;;;7.90;100.00;95398.59;1022967;29;20031;-72
2023/11/01 01:54:14;;;;;;;0.10;0.10;;;;;;;7.95;100.00;95405.69;1023260;28;20063;-74
2023/11/01 01:54:45;;;;;;;0.10;0.10;;;;;;;7.98;100.00;95413.81;1027220;28;20802;-73
2023/11/01 01:55:15;;;;;;;0.00;0.00;;;;;;;7.91;100.00;95396.78;1027145;28;20115;-72
2023/11/01 01:55:46;;;;;;;0.00;0.00;;;;;;;7.89;100.00;95398.88;1016269;29;20059;-71
2023/11/01 01:56:16;;;;;;;0.15;0.15;;;;;;;7.93;100.00;95407.78;1015220;29;20059;-72
2023/11/01 01:56:47;;;;;;;0.00;0.00;;;;;;;7.95;100.00;95403.09;1029560;28;20036;-73
2023/11/01 01:57:27;;;;;;;0.00;0.00;;;;;;;7.93;100.00;95403.31;1019143;29;20034;-74
2023/11/01 01:57:58;;;;;;;1.00;0.40;;;;;;;7.94;100.00;95402.28;1022646;29;20023;-74
2023/11/01 01:58:30;;;;;;;0.00;0.00;;;;;;;7.96;100.00;95407.25;1031163;28;20266;-73
2023/11/01 01:59:00;;;;;;;0.00;0.00;;;;;;;7.99;100.00;95409.38;1027316;28;20026;-72
2023/11/01 01:59:31;;;;;;;0.00;0.00;;;;;;;7.98;100.00;95405.16;1015179;29;20820;-71
2023/11/01 02:00:01;;;;;;;0.00;0.00;;;;;;;7.90;100.00;95390.00;1019144;29;20059;-74
2023/11/01 02:00:32;;;;;;;0.00;0.00;;;;;;;7.99;100.00;95402.31;1018725;29;20603;-73
2023/11/01 02:01:03;;;;;;;0.00;0.00;;;;;;;8.03;100.00;95410.44;1019345;28;20019;-72
2023/11/01 02:01:34;;;;;;;0.03;0.03;;;;;;;8.02;100.00;95404.44;1023029;29;20019;-73
2023/11/01 02:02:04;;;;;;;0.05;0.05;;;;;;;7.98;100.00;95397.34;1022941;29;20330;-73
2023/11/01 02:02:35;;;;;;;0.10;0.10;;;;;;;8.03;100.00;95398.16;1019285;29;20032;-73
2023/11/01 02:03:05;;;;;;;0.00;0.00;;;;;;;7.88;100.00;95384.22;1019094;29;20023;-74
2023/11/01 02:03:36;;;;;;;0.10;0.10;;;;;;;8.04;100.00;95398.94;1015271;29;20032;-73
2023/11/01 02:04:07;;;;;;;0.00;0.00;;;;;;;8.04;100.00;95404.94;1014989;29;20066;-72
2023/11/01 02:04:38;;;;;;;0.00;0.00;;;;;;;8.02;100.00;95396.59;1023129;29;20054;-72
2023/11/01 02:05:08;;;;;;;0.00;0.00;;;;;;;7.97;100.00;95390.53;1023051;29;20278;-74
2023/11/01 02:05:39;;;;;;;0.00;0.00;;;;;;;8.03;100.00;95392.16;1023229;29;20098;-72
2023/11/01 02:06:09;;;;;;;0.00;0.00;;;;;;;8.01;100.00;95395.03;1015100;29;20032;-73
2023/11/01 02:06:40;;;;;;;0.05;0.05;;;;;;;8.03;100.00;95394.75;1018958;29;20502;-72
2023/11/01 02:07:10;;;;;;;0.00;0.00;;;;;;;8.04;100.00;95397.09;1023231;29;20715;-72
2023/11/01 02:07:41;;;;;;;0.00;0.00;;;;;;;8.02;100.00;95387.97;1023279;28;20034;-72
2023/11/01 02:08:11;;;;;;;0.15;0.15;;;;;;;8.03;100.00;95395.53;1023028;28;20043;-73
2023/11/01 02:08:42;;;;;;;0.00;0.00;;;;;;;8.05;100.00;95397.91;1027157;28;20158;-72
2023/11/01 02:09:16;;;;;;;0.57;0.10;;;;;;;8.02;100.00;95393.97;1026984;28;20039;-75
2023/11/01 02:09:46;;;;;;;0.00;0.00;;;;;;;7.99;100.00;95372.81;1022395;29;20086;-72
2023/11/01 02:10:16;;;;;;;0.00;0.00;;;;;;;8.06;100.00;95394.25;1022451;29;20271;-74
2023/11/01 02:10:47;;;;;;;0.00;0.00;;;;;;;8.09;100.00;95393.75;1023576;28;20031;-73
2023/11/01 02:11:18;;;;;;;0.00;0.00;;;;;;;8.05;100.00;95390.06;1023546;28;20039;-72
2023/11/01 02:11:48;;;;;;;0.10;0.10;;;;;;;8.11;100.00;95390.88;1026744;28;20035;-73
2023/11/01 02:12:18;;;;;;;0.10;0.10;;;;;;;8.12;100.00;95392.47;1019089;29;20072;-75
2023/11/01 02:12:49;;;;;;;0.00;0.00;;;;;;;8.12;100.00;95389.84;1026892;28;20035;-73
2023/11/01 02:13:19;;;;;;;0.00;0.00;;;;;;;8.13;100.00;95389.56;1030986;28;20031;-72
2023/11/01 02:13:50;;;;;;;0.00;0.00;;;;;;;8.06;100.00;95373.34;1030908;28;20030;-74
2023/11/01 02:14:21;;;;;;;0.00;0.00;;;;;;;7.93;100.00;95358.91;1026811;28;20514;-72
2023/11/01 02:14:51;;;;;;;0.05;0.05;;;;;;;8.09;100.00;95380.69;1018898;29;20111;-72
2023/11/01 02:15:22;;;;;;;0.08;0.08;;;;;;;8.07;100.00;95374.91;1023033;29;20275;-72
2023/11/01 02:15:52;;;;;;;0.00;0.00;;;;;;;8.00;100.00;95369.91;1027038;28;20151;-72
2023/11/01 02:16:23;;;;;;;0.00;0.00;;;;;;;8.07;100.00;95374.91;1023034;28;20713;-71
2023/11/01 02:16:53;;;;;;;0.00;0.00;;;;;;;8.07;100.00;95374.91;1018984;29;20027;-74
2023/11/01 02:17:24;;;;;;;2.50;0.30;;;;;;;8.06;100.00;95375.19;1015437;29;20043;-72
2023/11/01 02:17:54;;;;;;;0.00;0.00;;;;;;;8.04;100.00;95372.81;1019167;29;20518;-74
2023/11/01 02:18:25;;;;;;;0.15;0.15;;;;;;;8.03;100.00;95376.47;1018998;29;20040;-72
2023/11/01 02:18:55;;;;;;;0.52;0.52;;;;;;;8.03;100.00;95371.25;1019018;29;20032;-74
2023/11/01 02:19:25;;;;;;;0.00;0.00;;;;;;;8.03;100.00;95373.84;1026923;28;20033;-73
2023/11/01 02:19:56;;;;;;;0.00;0.00;;;;;;;7.98;100.00;95371.22;1030904;28;20596;-74
2023/11/01 02:20:26;;;;;;;0.00;0.00;;;;;;;7.97;100.00;95369.66;1030276;28;20030;-72
2023/11/01 02:20:57;;;;;;;0.38;0.15;;;;;;;7.97;100.00;95364.41;1023113;29;20514;-73
2023/11/01 02:21:27;;;;;;;0.75;0.13;;;;;;;7.95;100.00;95363.91;1018504;29;20032;-72
2023/11/01 02:21:58;;;;;;;0.15;0.15;;;;;;;7.97;100.00;95369.66;1018159;29;20079;-74
2023/11/01 02:22:28;;;;;;;0.10;0.10;;;;;;;7.93;100.00;95366.75;1018953;29;20016;-73
2023/11/01 02:22:59;;;;;;;0.00;0.00;;;;;;;7.92;100.00;95369.63;1018855;28;20070;-72
2023/11/01 02:23:33;;;;;;;0.00;0.00;;;;;;;7.90;100.00;95367.25;1023579;28;20027;-72
2023/11/01 02:24:04;;;;;;;0.00;0.00;;;;;;;7.88;100.00;95369.38;1024124;28;20027;-71
2023/11/01 02:24:34;;;;;;;0.00;0.00;;;;;;;7.85;100.00;95363.84;1023630;28;20266;-72